Etusivu
METAR-TAF:

METAR-TAF

Lentoasemat :

Longyearbyen, Norja

Huippuvuorten lentoasema

Leveyspiiri: 78-15N, Pituuspiiri: 015-28E, korkeus merenpinnasta: 2 m

Tämänhetkinen sää

Tämä raportti tehtiin 44 minuuttia sitten, kello 07.50 UTC
Tuuli 12 kn lännestä/lounaasta
Lämpötila 6°C
Kosteus 93%
Ilmanpaine 1012 hPa
Näkyvyys 10 km tai enemmän
Muutamia pilviä 500 ft:n korkeudessa
Hajonneita pilviä 800 ft:n korkeudessa

METAR: ENSB 210750Z 25012KT 9999 FEW005 BKN008 06/05 Q1012 TEMPO BKN012 RMK WIND 1400FT 26016KT

Aika: 10:34 (08:34 UTC)

Sääennuste

Ennuste voimassa 21. päivästä klo 06 UTC - 22. päivään klo 06 UTC
Tuuli 12 kn lännestä/lounaasta
Näkyvyys 10 km tai enemmän
Hajanaisia pilviä 800 ft:n korkeudessa
Hajonneita pilviä 2000 ft:n korkeudessa
Ajoittain
21. päivästä klo 06 UTC - 22. päivään klo 06 UTC
Hajonneita pilviä 800 ft:n korkeudessa

TAF: ENSB 2106/2206 24012KT 9999 SCT008 BKN020 TEMPO 2106/2206 BKN008

Säähavainnot ja -ennusteet yli 4000 lentoasemalta (METAR- ja TAF-raportit).

Käytössä olevat sääasemat on merkitty karttaan keltaisilla ja punaisilla pisteillä.

Aseta hiiri pisteen päälle nähdäksesi sääaseman nimen.

Klikkaa sitten nähdäksesi säähavainnot ja -ennusteet.

Kartan vaihtaminen: klikkaa mustalla rastilla varustettuja vihreitä pisteitä, niin voit zoomata sisään; viivalla varustettua vihreää pistettä, niin voit zoomata ulos tai vihreitä nuolia, niin pääset viereisille kartoille.


METAR-TAF: